Time;durP1;ratioP1;P1;durP2;ratioP2;P2;SDS_P1;SDS_P2;PMS_P1;PMS_P2;Temp;Humidity;BMP_temperature;BMP_pressure;BME280_temperature;BME280_humidity;BME280_pressure;Samples;Min_cycle;Max_cycle;Signal;HPM_P1;HPM_P2
2021/05/17 00:02:17;;;;;;;0.63;0.20;;;;;;;7.39;95.30;94516.66;5007642;28;20781;-67
2021/05/17 00:04:44;;;;;;;0.10;0.10;;;;;;;7.44;95.66;94521.34;5017673;28;20225;-66
2021/05/17 00:07:12;;;;;;;0.63;0.30;;;;;;;7.47;95.80;94517.53;5011223;28;20293;-66
2021/05/17 00:09:39;;;;;;;0.20;0.20;;;;;;;7.40;95.89;94517.47;5019394;28;20443;-66
2021/05/17 00:12:10;;;;;;;0.10;0.10;;;;;;;7.39;96.11;94518.47;5019477;28;20221;-67
2021/05/17 00:14:37;;;;;;;3.80;1.30;;;;;;;7.37;96.76;94517.88;5022257;28;20278;-67
2021/05/17 00:17:06;;;;;;;0.20;0.20;;;;;;;7.36;97.12;94514.44;5008611;28;20311;-67
2021/05/17 00:19:34;;;;;;;1.90;0.20;;;;;;;7.28;97.42;94517.19;5017820;28;20505;-67
2021/05/17 00:22:01;;;;;;;0.10;0.10;;;;;;;7.25;98.00;94514.16;5019140;28;20247;-67
2021/05/17 00:24:30;;;;;;;0.33;0.33;;;;;;;7.23;98.21;94508.31;5022057;28;20608;-67
2021/05/17 00:26:58;;;;;;;3.47;0.80;;;;;;;7.32;98.65;94507.16;5017854;28;20219;-67
2021/05/17 00:29:27;;;;;;;2.67;0.37;;;;;;;7.40;98.04;94514.84;5021043;28;20305;-67
2021/05/17 00:31:54;;;;;;;0.20;0.13;;;;;;;7.44;98.03;94513.47;5015276;28;20305;-67
2021/05/17 00:34:23;;;;;;;0.50;0.37;;;;;;;7.36;98.33;94511.00;5016073;28;20239;-67
2021/05/17 00:36:50;;;;;;;0.40;0.40;;;;;;;7.37;98.18;94513.44;5022553;28;20223;-67
2021/05/17 00:39:18;;;;;;;0.30;0.30;;;;;;;7.36;98.49;94518.88;5012074;28;20223;-67
2021/05/17 00:41:45;;;;;;;0.70;0.30;;;;;;;7.32;98.53;94525.53;5017942;28;20217;-67
2021/05/17 00:44:13;;;;;;;0.40;0.40;;;;;;;7.37;98.65;94520.50;5016564;28;20254;-67
2021/05/17 00:46:42;;;;;;;0.40;0.30;;;;;;;7.39;98.53;94510.59;5020613;28;20217;-67
2021/05/17 00:49:09;;;;;;;0.30;0.20;;;;;;;7.38;98.48;94514.22;5022526;28;20227;-67
2021/05/17 00:51:39;;;;;;;1.13;0.97;;;;;;;7.35;98.06;94514.63;5016510;28;20350;-66
2021/05/17 00:54:07;;;;;;;0.60;0.60;;;;;;;7.42;98.02;94526.00;5019426;28;20287;-67
2021/05/17 00:56:35;;;;;;;0.50;0.40;;;;;;;7.36;98.21;94527.56;5012115;28;21810;-67
2021/05/17 00:59:03;;;;;;;0.47;0.47;;;;;;;7.44;97.57;94523.97;5018856;28;20216;-67
2021/05/17 01:01:31;;;;;;;0.10;0.10;;;;;;;7.46;98.04;94529.03;5018826;28;20223;-67
2021/05/17 01:03:59;;;;;;;0.40;0.40;;;;;;;7.49;98.01;94528.63;5020064;28;20624;-67
2021/05/17 01:06:41;;;;;;;0.60;0.40;;;;;;;7.48;97.85;94530.44;5018458;28;20223;-67
2021/05/17 01:09:11;;;;;;;0.20;0.20;;;;;;;7.50;97.86;94517.97;5048173;28;20260;-67
2021/05/17 01:11:45;;;;;;;0.83;0.30;;;;;;;7.55;97.82;94515.56;5015305;28;20634;-67
2021/05/17 01:14:13;;;;;;;1.60;0.10;;;;;;;7.62;97.40;94512.97;5021978;28;20290;-67
2021/05/17 01:16:44;;;;;;;2.33;0.10;;;;;;;7.62;97.34;94526.09;5018785;28;20223;-66
2021/05/17 01:19:25;;;;;;;0.20;0.20;;;;;;;7.73;96.16;94527.38;5052219;28;20232;-67
2021/05/17 01:21:57;;;;;;;1.70;0.73;;;;;;;7.77;96.23;94531.22;5020422;28;20224;-67
2021/05/17 01:24:28;;;;;;;0.30;0.30;;;;;;;7.79;95.69;94526.59;5016643;28;20274;-67
2021/05/17 01:26:56;;;;;;;0.73;0.13;;;;;;;7.85;94.79;94537.13;5013771;28;20260;-66
2021/05/17 01:29:24;;;;;;;0.37;0.10;;;;;;;7.90;95.04;94533.94;5012027;28;20290;-67
2021/05/17 01:31:52;;;;;;;0.20;0.20;;;;;;;7.90;94.80;94539.19;5017529;28;20260;-68
2021/05/17 01:34:20;;;;;;;0.50;0.50;;;;;;;7.85;94.78;94536.31;5016754;28;20286;-67
2021/05/17 01:36:49;;;;;;;0.10;0.10;;;;;;;7.81;94.37;94529.84;5017446;28;20211;-67
2021/05/17 01:39:18;;;;;;;1.00;0.10;;;;;;;7.74;94.59;94547.38;5023318;28;20240;-66
2021/05/17 01:41:48;;;;;;;3.60;1.30;;;;;;;7.71;94.06;94545.94;5020630;28;20451;-67
2021/05/17 01:44:18;;;;;;;0.30;0.10;;;;;;;7.68;94.02;94536.66;5011655;28;20259;-67
2021/05/17 01:46:48;;;;;;;1.03;0.10;;;;;;;7.61;94.21;94546.31;5054419;28;20223;-67
2021/05/17 01:49:16;;;;;;;0.10;0.10;;;;;;;7.53;94.26;94543.81;5018375;28;20294;-67
2021/05/17 01:51:48;;;;;;;0.33;0.00;;;;;;;7.52;94.25;94541.38;5010537;28;20228;-67
2021/05/17 01:54:17;;;;;;;0.70;0.20;;;;;;;7.44;94.60;94539.72;5023747;28;20231;-67
2021/05/17 01:56:49;;;;;;;0.00;0.00;;;;;;;7.44;94.20;94534.47;5013226;28;20334;-67
2021/05/17 01:59:28;;;;;;;0.17;0.10;;;;;;;7.37;93.91;94537.03;5047673;28;20663;-67
2021/05/17 02:01:56;;;;;;;0.00;0.00;;;;;;;7.24;94.15;94538.78;5022511;28;20651;-67
2021/05/17 02:04:24;;;;;;;0.20;0.10;;;;;;;7.21;94.53;94533.88;5023103;28;20722;-67
2021/05/17 02:06:53;;;;;;;0.37;0.10;;;;;;;7.13;95.03;94540.94;5014676;28;20222;-67
2021/05/17 02:09:21;;;;;;;2.80;0.20;;;;;;;7.07;95.31;94539.06;5020493;28;20680;-67
2021/05/17 02:11:50;;;;;;;0.07;0.07;;;;;;;7.11;94.36;94545.53;5016040;28;20229;-67
2021/05/17 02:14:29;;;;;;;0.00;0.00;;;;;;;7.07;94.24;94541.69;5022863;28;20720;-67
2021/05/17 02:16:58;;;;;;;0.00;0.00;;;;;;;7.04;94.19;94549.94;5022547;28;20270;-67
2021/05/17 02:19:26;;;;;;;0.00;0.00;;;;;;;7.04;94.37;94557.81;5039320;28;20631;-66
2021/05/17 02:21:58;;;;;;;0.27;0.00;;;;;;;7.06;93.92;94568.91;5021095;28;20702;-67
2021/05/17 02:24:29;;;;;;;0.03;0.00;;;;;;;7.05;93.65;94561.22;5009183;28;20770;-67
2021/05/17 02:26:58;;;;;;;0.00;0.00;;;;;;;7.01;93.79;94563.41;5010285;28;20217;-67
2021/05/17 02:29:34;;;;;;;0.00;0.00;;;;;;;7.05;93.64;94562.03;5014882;28;20223;-67
2021/05/17 02:32:02;;;;;;;0.00;0.00;;;;;;;7.00;93.81;94567.03;5022387;28;20247;-67
2021/05/17 02:34:31;;;;;;;0.00;0.00;;;;;;;7.00;93.90;94572.28;5019689;28;20224;-66
2021/05/17 02:36:59;;;;;;;0.60;0.07;;;;;;;6.94;94.09;94570.41;5021563;28;20237;-67
2021/05/17 02:39:27;;;;;;;0.43;0.43;;;;;;;6.95;93.94;94572.03;5018643;28;20254;-67
2021/05/17 02:41:56;;;;;;;0.20;0.00;;;;;;;6.93;93.91;94571.41;5019641;28;20228;-67
2021/05/17 02:44:25;;;;;;;0.20;0.00;;;;;;;6.98;93.53;94576.09;5024131;28;20223;-67
2021/05/17 02:46:53;;;;;;;0.00;0.00;;;;;;;6.98;93.78;94570.84;5008155;28;20231;-67
2021/05/17 02:49:21;;;;;;;0.00;0.00;;;;;;;6.89;93.77;94572.78;5007950;28;20853;-67
2021/05/17 02:51:49;;;;;;;0.10;0.10;;;;;;;6.92;94.50;94577.66;5016870;28;20227;-67
2021/05/17 02:54:30;;;;;;;0.20;0.20;;;;;;;6.88;94.74;94575.59;5019561;28;20322;-67
2021/05/17 02:57:25;;;;;;;0.30;0.10;;;;;;;6.92;94.96;94577.66;5011270;28;20266;-67
2021/05/17 03:00:18;;;;;;;0.20;0.20;;;;;;;6.89;95.13;94583.28;5020409;28;20226;-67
2021/05/17 03:03:02;;;;;;;1.40;1.00;;;;;;;6.89;95.10;94588.53;5021515;28;20224;-67
2021/05/17 03:05:39;;;;;;;0.10;0.10;;;;;;;6.98;95.44;94587.41;5019979;28;20303;-67
2021/05/17 03:08:12;;;;;;;0.10;0.10;;;;;;;6.97;95.50;94596.28;5021480;28;20435;-67
2021/05/17 03:10:43;;;;;;;0.93;0.10;;;;;;;7.12;95.25;94597.00;5018689;28;20256;-67
2021/05/17 03:13:12;;;;;;;0.10;0.10;;;;;;;7.17;94.79;94590.38;5017679;28;20256;-67
2021/05/17 03:15:42;;;;;;;0.00;0.00;;;;;;;7.15;94.91;94592.38;5020317;28;20236;-64
2021/05/17 03:18:10;;;;;;;0.40;0.00;;;;;;;7.20;95.00;94601.31;5007769;28;20222;-66
2021/05/17 03:20:38;;;;;;;0.27;0.00;;;;;;;7.10;95.01;94591.13;5021191;28;20242;-66
2021/05/17 03:23:08;;;;;;;0.27;0.20;;;;;;;6.99;94.98;94593.44;5012196;28;20221;-65
2021/05/17 03:25:37;;;;;;;0.10;0.10;;;;;;;6.98;94.96;94602.31;5022665;28;20282;-66
2021/05/17 03:28:05;;;;;;;0.10;0.10;;;;;;;6.98;94.91;94600.50;5023759;28;20224;-66
2021/05/17 03:30:32;;;;;;;1.53;0.57;;;;;;;6.94;94.45;94601.88;5015567;28;20808;-66
2021/05/17 03:33:01;;;;;;;0.63;0.63;;;;;;;6.96;94.58;94610.38;5019459;28;20225;-64
2021/05/17 03:35:28;;;;;;;0.77;0.13;;;;;;;6.93;94.73;94602.88;5018082;28;20237;-66
2021/05/17 03:37:55;;;;;;;0.00;0.00;;;;;;;6.97;94.60;94606.75;5013721;28;20302;-65
2021/05/17 03:40:23;;;;;;;1.40;0.10;;;;;;;6.90;94.53;94603.25;5017858;28;20228;-65
2021/05/17 03:42:51;;;;;;;5.30;1.23;;;;;;;6.90;94.71;94605.88;5007866;28;20250;-66
2021/05/17 03:45:18;;;;;;;1.33;0.10;;;;;;;6.91;94.46;94609.31;5019179;28;20783;-64
2021/05/17 03:47:45;;;;;;;1.20;0.30;;;;;;;6.90;94.21;94611.13;5021456;28;20747;-65
2021/05/17 03:50:14;;;;;;;2.53;1.03;;;;;;;6.89;94.13;94614.75;5023031;28;20227;-65
2021/05/17 03:52:41;;;;;;;0.63;0.10;;;;;;;6.90;94.21;94616.38;5017662;28;20747;-65
2021/05/17 03:55:09;;;;;;;0.40;0.20;;;;;;;6.83;94.39;94621.53;4997082;28;20228;-65
2021/05/17 03:57:38;;;;;;;3.33;0.30;;;;;;;6.84;94.83;94625.78;5017978;28;20217;-65
2021/05/17 04:00:08;;;;;;;0.57;0.20;;;;;;;6.89;94.82;94625.22;5010938;28;20246;-65
2021/05/17 04:02:44;;;;;;;3.13;0.53;;;;;;;6.86;95.22;94625.63;5019410;28;20235;-65
2021/05/17 04:13:27;;;;;;;2.23;0.43;;;;;;;6.99;94.49;94630.97;5023676;28;20232;-65
2021/05/17 04:15:55;;;;;;;1.50;0.20;;;;;;;6.87;94.86;94635.09;5021931;28;20323;-65
2021/05/17 04:18:23;;;;;;;1.37;0.50;;;;;;;6.91;94.40;94638.97;5020691;28;20229;-64
2021/05/17 04:20:52;;;;;;;2.93;0.47;;;;;;;6.86;94.85;94641.34;5016694;28;20758;-66
2021/05/17 04:23:21;;;;;;;1.63;0.83;;;;;;;6.80;94.89;94647.31;5018561;28;20291;-65
2021/05/17 04:25:49;;;;;;;3.43;0.60;;;;;;;6.87;94.58;94642.97;5014977;28;20652;-65
2021/05/17 04:28:16;;;;;;;1.60;0.30;;;;;;;6.97;94.23;94645.28;5016149;28;20620;-66
2021/05/17 04:30:44;;;;;;;3.83;0.50;;;;;;;6.96;94.45;94644.47;5017854;28;20307;-65
2021/05/17 04:33:11;;;;;;;4.87;1.90;;;;;;;7.03;94.33;94663.69;5014656;28;20212;-65
2021/05/17 04:35:39;;;;;;;0.73;0.47;;;;;;;7.05;94.08;94664.34;5015500;28;20231;-65
2021/05/17 04:38:06;;;;;;;1.47;0.20;;;;;;;7.10;93.99;94658.53;5018651;28;20766;-65
2021/05/17 04:40:34;;;;;;;0.80;0.50;;;;;;;7.17;93.75;94659.41;5020733;28;20228;-65
2021/05/17 04:43:02;;;;;;;0.73;0.33;;;;;;;7.24;93.49;94654.22;5020912;28;20219;-66
2021/05/17 04:45:29;;;;;;;2.07;0.93;;;;;;;7.21;93.13;94659.84;5020794;28;20255;-66
2021/05/17 04:47:56;;;;;;;2.73;0.90;;;;;;;7.26;93.08;94663.53;5015754;28;20739;-65
2021/05/17 04:50:24;;;;;;;1.23;0.57;;;;;;;7.33;92.61;94677.53;5019351;28;20251;-65
2021/05/17 04:52:51;;;;;;;0.97;0.47;;;;;;;7.40;92.57;94669.69;5018473;28;20270;-65
2021/05/17 04:55:18;;;;;;;2.80;0.33;;;;;;;7.41;92.36;94666.09;5020286;28;20277;-64
2021/05/17 04:57:47;;;;;;;1.50;0.67;;;;;;;7.45;91.97;94672.59;5015063;28;20228;-65
2021/05/17 05:00:15;;;;;;;1.90;0.47;;;;;;;7.57;91.85;94668.44;5013940;28;20285;-66
2021/05/17 05:02:43;;;;;;;0.43;0.40;;;;;;;7.58;91.77;94683.19;5017912;28;20536;-66
2021/05/17 05:05:11;;;;;;;2.87;0.87;;;;;;;7.58;91.10;94666.63;5050434;28;20919;-66
2021/05/17 05:07:38;;;;;;;3.33;0.70;;;;;;;7.60;90.94;94675.16;5018322;28;20532;-65
2021/05/17 05:10:06;;;;;;;0.63;0.40;;;;;;;7.70;89.56;94681.69;5018152;28;20330;-65
2021/05/17 05:12:37;;;;;;;4.10;0.57;;;;;;;7.64;90.53;94671.94;5021407;28;20236;-65
2021/05/17 05:15:06;;;;;;;1.27;0.30;;;;;;;7.73;91.10;94669.19;5018501;28;20500;-65
2021/05/17 05:17:34;;;;;;;2.57;0.90;;;;;;;7.74;90.42;94686.56;5014330;28;20219;-65
2021/05/17 05:20:02;;;;;;;2.53;1.30;;;;;;;7.73;90.81;94679.69;5019161;28;20236;-65
2021/05/17 05:22:30;;;;;;;6.33;2.17;;;;;;;7.82;90.57;94689.84;5017470;28;20224;-66
2021/05/17 05:24:58;;;;;;;1.53;0.70;;;;;;;7.80;90.73;94685.81;5015457;28;20735;-65
2021/05/17 05:27:28;;;;;;;0.50;0.50;;;;;;;7.82;91.12;94681.97;5006866;28;20251;-65
2021/05/17 05:33:07;;;;;;;1.57;0.73;;;;;;;7.87;91.25;94689.28;4996925;28;20275;-66
2021/05/17 05:35:35;;;;;;;2.73;0.87;;;;;;;7.93;90.85;94681.44;4994112;28;20245;-65
2021/05/17 05:38:02;;;;;;;1.30;0.60;;;;;;;8.01;90.75;94683.13;4998748;28;20319;-65
2021/05/17 05:40:30;;;;;;;0.77;0.47;;;;;;;8.09;91.23;94687.41;5001735;28;20281;-66
2021/05/17 05:42:57;;;;;;;3.20;1.40;;;;;;;8.16;90.87;94685.66;4996920;28;20253;-66
2021/05/17 05:45:26;;;;;;;1.43;0.30;;;;;;;8.33;91.01;94691.41;5001167;28;20312;-64
2021/05/17 05:47:53;;;;;;;2.47;0.30;;;;;;;8.34;90.88;94693.84;4999149;28;20224;-65
2021/05/17 05:50:21;;;;;;;0.80;0.20;;;;;;;8.37;90.24;94697.94;4994421;28;20296;-65
2021/05/17 05:52:49;;;;;;;0.53;0.20;;;;;;;8.40;89.52;94700.97;5000467;28;20258;-65
2021/05/17 05:55:17;;;;;;;3.13;1.43;;;;;;;8.38;89.67;94689.03;5000215;28;20222;-66
2021/05/17 05:57:45;;;;;;;2.13;1.57;;;;;;;8.47;89.52;94677.34;4996596;28;21739;-65
2021/05/17 06:00:15;;;;;;;0.77;0.57;;;;;;;8.61;90.21;94699.28;4992412;28;20287;-65
2021/05/17 06:02:42;;;;;;;0.53;0.53;;;;;;;8.68;89.53;94693.03;4999049;28;20214;-65
2021/05/17 06:05:11;;;;;;;0.57;0.20;;;;;;;8.80;87.99;94706.44;4993330;28;20304;-65
2021/05/17 06:07:39;;;;;;;2.67;0.83;;;;;;;8.80;88.16;94702.00;4995540;28;20247;-66
2021/05/17 06:10:09;;;;;;;2.50;1.20;;;;;;;8.64;88.31;94709.41;4995378;28;20635;-66
2021/05/17 06:12:39;;;;;;;3.60;0.50;;;;;;;8.77;88.17;94710.25;4998067;28;20235;-64
2021/05/17 06:15:07;;;;;;;4.13;1.13;;;;;;;8.81;89.04;94722.03;4997707;28;20766;-65
2021/05/17 06:17:35;;;;;;;0.53;0.30;;;;;;;8.74;88.07;94715.91;4997419;28;20247;-65
2021/05/17 06:20:04;;;;;;;0.70;0.70;;;;;;;8.83;88.58;94719.19;4997582;28;20232;-65
2021/05/17 06:22:35;;;;;;;3.53;2.40;;;;;;;8.88;88.65;94722.06;4994612;28;20239;-65
2021/05/17 06:25:06;;;;;;;1.93;0.70;;;;;;;8.92;88.88;94706.69;5002822;28;20254;-65
2021/05/17 06:27:34;;;;;;;1.43;0.70;;;;;;;8.93;87.22;94718.81;5004213;28;20257;-65
2021/05/17 06:30:03;;;;;;;2.50;1.57;;;;;;;8.78;87.19;94727.69;4997296;28;20227;-65
2021/05/17 06:32:34;;;;;;;0.63;0.20;;;;;;;8.94;87.85;94730.97;5001494;28;20246;-64
2021/05/17 06:35:03;;;;;;;1.37;0.70;;;;;;;9.00;87.08;94719.69;4999678;28;20261;-64
2021/05/17 06:37:30;;;;;;;1.80;0.97;;;;;;;9.00;85.96;94720.47;5000033;28;20663;-65
2021/05/17 06:39:57;;;;;;;3.70;2.00;;;;;;;9.02;86.68;94723.72;4998660;28;20283;-65
2021/05/17 06:42:26;;;;;;;1.03;0.77;;;;;;;9.01;85.95;94723.94;5020850;28;20238;-65
2021/05/17 06:44:54;;;;;;;5.60;0.73;;;;;;;9.07;86.78;94725.78;5021980;28;20236;-65
2021/05/17 06:47:22;;;;;;;1.20;0.87;;;;;;;9.16;86.36;94727.22;5021110;28;20704;-66
2021/05/17 06:49:49;;;;;;;2.70;1.77;;;;;;;9.22;85.83;94739.56;5019102;28;20274;-65
2021/05/17 06:52:21;;;;;;;2.10;0.40;;;;;;;9.29;85.25;94739.59;5019137;28;20315;-65
2021/05/17 06:54:50;;;;;;;1.20;0.60;;;;;;;9.36;85.14;94743.06;5024211;28;20222;-66
2021/05/17 06:57:21;;;;;;;1.60;1.00;;;;;;;9.28;85.25;94730.91;5024236;28;20647;-65
2021/05/17 06:59:55;;;;;;;2.00;0.90;;;;;;;9.26;86.04;94740.81;5022251;28;20660;-66
2021/05/17 07:02:24;;;;;;;1.43;0.60;;;;;;;9.15;86.02;94736.13;5014559;28;20285;-65
2021/05/17 07:04:52;;;;;;;3.13;0.97;;;;;;;9.07;86.49;94733.66;5020235;28;20229;-66
2021/05/17 07:07:23;;;;;;;4.30;1.90;;;;;;;8.99;85.94;94749.63;5018751;28;20310;-66
2021/05/17 07:12:36;;;;;;;4.30;1.90;;;;;;;9.13;86.63;94738.13;5022124;28;20705;-66
2021/05/17 07:15:06;;;;;;;0.60;0.20;;;;;;;9.18;85.60;94750.72;5016060;28;20316;-66
2021/05/17 07:17:34;;;;;;;1.03;1.00;;;;;;;9.43;84.93;94743.09;5015733;28;20236;-66
2021/05/17 07:20:01;;;;;;;1.60;1.50;;;;;;;9.45;84.78;94744.50;5005871;28;20307;-66
2021/05/17 07:25:14;;;;;;;5.00;1.50;;;;;;;9.53;82.78;94754.06;5019182;28;20323;-65
2021/05/17 07:27:41;;;;;;;3.77;0.70;;;;;;;9.53;84.17;94746.97;5020587;28;20231;-65
2021/05/17 07:30:11;;;;;;;0.73;0.67;;;;;;;9.37;83.46;94761.31;5020114;28;20281;-65
2021/05/17 07:32:38;;;;;;;3.30;0.37;;;;;;;9.27;83.50;94760.88;5017672;28;20289;-65
2021/05/17 07:35:07;;;;;;;1.53;0.43;;;;;;;9.30;84.59;94763.09;5018102;28;20282;-65
2021/05/17 07:37:34;;;;;;;3.20;1.30;;;;;;;9.31;84.66;94772.63;5022282;28;20327;-66
2021/05/17 07:40:02;;;;;;;1.47;0.53;;;;;;;9.36;83.69;94764.13;5017505;28;20216;-66
2021/05/17 07:42:29;;;;;;;2.93;0.20;;;;;;;9.47;84.58;94762.75;5015510;28;20230;-65
2021/05/17 07:44:57;;;;;;;0.13;0.13;;;;;;;9.58;83.39;94764.78;5019092;28;20225;-66
2021/05/17 07:47:25;;;;;;;0.20;0.20;;;;;;;9.59;84.07;94761.13;5019690;28;20230;-66
2021/05/17 07:49:53;;;;;;;0.30;0.10;;;;;;;9.56;83.82;94767.63;5015012;28;20280;-64
2021/05/17 07:52:21;;;;;;;0.43;0.27;;;;;;;9.69;82.86;94764.19;5018324;28;20289;-65
2021/05/17 07:54:48;;;;;;;2.83;0.73;;;;;;;9.78;83.24;94772.72;5016715;28;20240;-65
2021/05/17 07:57:16;;;;;;;3.80;0.83;;;;;;;9.75;81.64;94773.94;5021209;28;20282;-64
2021/05/17 07:59:44;;;;;;;1.13;0.33;;;;;;;9.88;82.33;94760.81;5022808;28;20269;-65
2021/05/17 08:02:13;;;;;;;0.87;0.30;;;;;;;10.16;81.46;94773.00;5015061;28;20566;-65
2021/05/17 08:04:42;;;;;;;0.80;0.13;;;;;;;10.39;81.37;94778.66;5018072;28;20231;-65
2021/05/17 08:07:09;;;;;;;0.60;0.10;;;;;;;10.61;81.15;94771.38;5019111;28;20236;-65
2021/05/17 08:09:36;;;;;;;1.80;0.30;;;;;;;10.57;79.25;94787.78;5021217;28;20279;-64
2021/05/17 08:12:05;;;;;;;0.10;0.10;;;;;;;10.59;79.94;94762.00;5022474;28;20643;-66
2021/05/17 08:14:33;;;;;;;0.83;0.30;;;;;;;11.06;78.95;94769.63;5019678;28;20252;-66
2021/05/17 08:17:02;;;;;;;0.10;0.10;;;;;;;11.09;77.31;94768.38;5017639;28;20227;-66
2021/05/17 08:19:31;;;;;;;0.30;0.10;;;;;;;11.16;78.60;94768.38;4999463;28;20313;-65
2021/05/17 08:21:59;;;;;;;1.00;0.10;;;;;;;11.10;75.56;94768.19;4995283;28;20270;-64
2021/05/17 08:24:27;;;;;;;1.50;0.70;;;;;;;11.60;77.01;94770.97;5005746;28;20787;-65
2021/05/17 08:26:55;;;;;;;1.73;0.30;;;;;;;11.79;77.64;94768.44;5001144;28;21340;-65
2021/05/17 08:29:24;;;;;;;0.10;0.10;;;;;;;11.53;75.43;94775.53;4996782;28;20284;-65
2021/05/17 08:31:52;;;;;;;2.00;0.83;;;;;;;11.89;77.29;94768.84;4997785;28;20277;-65
2021/05/17 08:34:19;;;;;;;2.17;1.13;;;;;;;11.89;76.15;94774.13;5001271;28;20239;-64
2021/05/17 08:36:46;;;;;;;0.67;0.67;;;;;;;12.16;76.61;94770.28;5004911;28;20213;-65
2021/05/17 08:39:15;;;;;;;1.10;0.17;;;;;;;11.92;74.65;94773.69;5002218;28;20227;-64
2021/05/17 08:41:42;;;;;;;3.30;1.30;;;;;;;11.99;76.08;94778.94;5008793;28;20235;-65
2021/05/17 08:44:11;;;;;;;2.17;0.43;;;;;;;12.16;75.15;94775.56;5000379;28;20512;-65
2021/05/17 08:46:42;;;;;;;2.53;0.10;;;;;;;12.16;73.29;94772.06;5000364;28;20281;-65
2021/05/17 08:49:10;;;;;;;0.77;0.40;;;;;;;11.83;75.65;94770.50;4998443;28;20284;-65
2021/05/17 08:51:38;;;;;;;0.10;0.10;;;;;;;11.59;75.17;94779.94;5001248;28;20246;-66
2021/05/17 08:54:07;;;;;;;0.37;0.30;;;;;;;11.39;76.67;94789.78;5006230;28;20614;-66
2021/05/17 08:56:39;;;;;;;0.40;0.10;;;;;;;11.40;74.83;94775.56;4995889;28;20238;-66
2021/05/17 08:59:06;;;;;;;2.83;0.40;;;;;;;11.46;76.32;94782.66;4991724;28;20235;-65
2021/05/17 09:01:34;;;;;;;3.13;0.40;;;;;;;11.17;77.49;94785.84;4999298;28;20225;-65
2021/05/17 09:04:04;;;;;;;1.80;0.63;;;;;;;10.97;77.16;94786.72;4999962;28;20734;-66
2021/05/17 09:06:40;;;;;;;0.73;0.20;;;;;;;10.72;78.30;94785.75;4996684;28;20230;-65
2021/05/17 09:09:23;;;;;;;1.90;0.20;;;;;;;10.74;78.95;94776.59;4992019;28;20303;-65
2021/05/17 09:11:54;;;;;;;0.67;0.10;;;;;;;10.78;79.37;94787.53;4994805;28;20217;-65
2021/05/17 09:14:22;;;;;;;2.17;0.13;;;;;;;10.86;77.59;94789.16;4998959;28;20224;-66
2021/05/17 09:16:53;;;;;;;0.27;0.27;;;;;;;11.02;78.47;94794.00;5005151;28;20725;-65
2021/05/17 09:19:22;;;;;;;0.60;0.10;;;;;;;11.18;77.45;94788.25;5002720;28;20271;-65
2021/05/17 09:22:02;;;;;;;0.63;0.23;;;;;;;11.51;77.21;94795.22;5015133;28;20216;-66
2021/05/17 09:24:48;;;;;;;0.10;0.10;;;;;;;11.63;76.52;94780.34;5034174;28;20458;-65
2021/05/17 09:27:22;;;;;;;0.27;0.10;;;;;;;11.35;74.59;94783.31;5009447;28;20253;-65
2021/05/17 09:29:51;;;;;;;1.20;0.93;;;;;;;11.38;75.80;94782.91;5016886;28;20687;-65
2021/05/17 09:32:24;;;;;;;1.17;1.03;;;;;;;11.46;75.23;94787.94;5019596;28;20244;-64
2021/05/17 09:35:00;;;;;;;0.37;0.30;;;;;;;12.05;74.14;94784.16;5023699;28;20244;-65
2021/05/17 09:37:42;;;;;;;2.00;1.23;;;;;;;12.01;75.39;94790.91;5018169;28;20290;-65
2021/05/17 09:40:17;;;;;;;3.30;0.30;;;;;;;11.75;73.99;94785.75;5025457;28;20250;-64
2021/05/17 09:42:58;;;;;;;0.27;0.20;;;;;;;11.47;74.13;94797.47;5016549;28;20253;-66
2021/05/17 09:45:41;;;;;;;0.40;0.40;;;;;;;11.50;75.50;94806.81;5017161;28;20775;-64
2021/05/17 09:48:08;;;;;;;0.20;0.10;;;;;;;11.88;75.00;94797.09;5022512;28;21553;-65
2021/05/17 09:51:01;;;;;;;1.20;0.13;;;;;;;12.40;75.82;94786.34;5021617;28;20240;-64
2021/05/17 09:53:31;;;;;;;0.97;0.30;;;;;;;12.31;73.90;94792.94;5016134;28;20550;-65
2021/05/17 09:55:58;;;;;;;0.60;0.17;;;;;;;12.24;73.19;94803.56;5018388;28;20735;-65
2021/05/17 09:58:30;;;;;;;9.17;0.30;;;;;;;12.18;74.26;94797.31;5032067;28;20229;-65
2021/05/17 10:01:09;;;;;;;0.93;0.27;;;;;;;12.34;74.96;94797.78;5020137;28;20217;-65
2021/05/17 10:03:38;;;;;;;0.47;0.40;;;;;;;12.04;75.15;94794.97;5023184;28;20226;-64
2021/05/17 10:06:08;;;;;;;0.30;0.20;;;;;;;11.69;76.89;94790.03;5023911;28;20648;-65
2021/05/17 10:08:36;;;;;;;0.90;0.73;;;;;;;12.01;79.64;94793.56;5018401;28;20721;-66
2021/05/17 10:11:06;;;;;;;0.87;0.10;;;;;;;12.05;79.44;94784.16;5020932;28;20256;-66
2021/05/17 10:13:35;;;;;;;0.30;0.10;;;;;;;12.03;75.43;94799.44;5022465;28;20229;-65
2021/05/17 10:16:07;;;;;;;1.67;0.97;;;;;;;12.61;74.86;94788.59;5021038;28;20241;-66
2021/05/17 10:18:35;;;;;;;0.40;0.10;;;;;;;13.19;71.46;94798.03;5022412;28;20888;-65
2021/05/17 10:21:04;;;;;;;0.40;0.40;;;;;;;12.92;70.29;94786.91;5020539;28;20234;-65
2021/05/17 10:23:32;;;;;;;0.63;0.20;;;;;;;12.87;72.83;94776.94;5023461;28;20231;-65
2021/05/17 10:26:12;;;;;;;0.33;0.17;;;;;;;12.75;71.06;94784.00;5024424;28;20656;-65
2021/05/17 10:28:43;;;;;;;0.40;0.30;;;;;;;13.64;71.67;94772.03;5022109;28;20273;-65
2021/05/17 10:31:14;;;;;;;0.20;0.10;;;;;;;13.87;69.51;94781.88;5022971;28;20709;-65
2021/05/17 10:33:43;;;;;;;0.20;0.20;;;;;;;13.07;69.04;94772.28;5025680;28;20278;-65
2021/05/17 10:36:11;;;;;;;0.47;0.17;;;;;;;12.85;70.67;94767.63;5024468;28;20314;-65
2021/05/17 10:38:44;;;;;;;0.53;0.20;;;;;;;12.68;69.21;94776.13;5020809;28;20297;-65
2021/05/17 10:41:36;;;;;;;0.53;0.47;;;;;;;13.31;70.96;94783.81;5021247;28;20235;-64
2021/05/17 10:44:11;;;;;;;1.70;0.10;;;;;;;13.81;69.03;94767.72;5021630;28;20232;-64
2021/05/17 10:46:40;;;;;;;0.10;0.10;;;;;;;13.65;68.69;94797.50;5026755;28;20218;-66
2021/05/17 10:49:29;;;;;;;1.40;0.20;;;;;;;12.80;68.71;94782.31;5023401;28;20639;-66
2021/05/17 10:52:24;;;;;;;1.60;0.10;;;;;;;12.62;71.11;94778.81;5019949;28;20224;-65
2021/05/17 10:55:06;;;;;;;1.83;0.30;;;;;;;13.18;68.88;94783.97;5014843;28;20438;-65
2021/05/17 10:57:39;;;;;;;0.90;0.10;;;;;;;13.51;69.35;94785.44;5020918;28;20258;-64
2021/05/17 11:00:25;;;;;;;2.87;0.10;;;;;;;12.90;68.93;94794.25;5023778;28;21786;-65
2021/05/17 11:03:14;;;;;;;0.30;0.20;;;;;;;12.81;69.30;94783.94;5016704;28;20235;-64
2021/05/17 11:05:43;;;;;;;0.10;0.10;;;;;;;13.02;68.43;94780.06;5017529;28;20306;-65
2021/05/17 11:08:12;;;;;;;0.87;0.10;;;;;;;13.30;69.28;94782.22;5023498;28;20467;-64
2021/05/17 11:10:42;;;;;;;0.40;0.30;;;;;;;13.23;68.61;94792.06;5018170;28;20228;-66
2021/05/17 11:13:11;;;;;;;0.50;0.37;;;;;;;13.87;66.93;94788.00;5021816;28;20250;-66
2021/05/17 11:15:47;;;;;;;0.10;0.10;;;;;;;14.35;67.88;94776.47;5021969;28;20220;-65
2021/05/17 11:18:23;;;;;;;2.67;0.53;;;;;;;14.84;65.37;94763.84;5022217;28;20244;-66
2021/05/17 11:20:53;;;;;;;0.30;0.20;;;;;;;14.58;65.44;94775.72;5021427;28;20685;-65
2021/05/17 11:23:58;;;;;;;0.53;0.20;;;;;;;14.34;65.48;94780.16;5021525;28;20251;-65
2021/05/17 11:26:30;;;;;;;0.10;0.10;;;;;;;14.27;64.61;94787.44;5019392;28;20705;-65
2021/05/17 11:29:00;;;;;;;0.20;0.20;;;;;;;14.52;65.63;94769.47;5022192;28;20802;-66
2021/05/17 11:31:40;;;;;;;0.30;0.30;;;;;;;14.72;64.24;94750.56;5017804;28;20701;-65
2021/05/17 11:34:27;;;;;;;0.50;0.20;;;;;;;14.29;67.14;94766.78;5020007;28;20239;-64
2021/05/17 11:37:13;;;;;;;0.10;0.10;;;;;;;14.35;65.36;94763.19;5019848;28;20732;-66
2021/05/17 11:39:42;;;;;;;0.23;0.20;;;;;;;14.41;64.77;94785.38;5023615;28;20276;-65
2021/05/17 11:42:11;;;;;;;0.67;0.10;;;;;;;14.63;62.69;94770.53;5022851;28;20227;-65
2021/05/17 11:44:43;;;;;;;0.10;0.00;;;;;;;13.83;63.71;94773.59;5019506;28;20289;-66
2021/05/17 11:47:13;;;;;;;0.77;0.10;;;;;;;14.27;68.93;94771.50;5022236;28;20232;-66
2021/05/17 11:49:46;;;;;;;0.30;0.30;;;;;;;14.66;66.34;94763.97;5020528;28;20666;-66
2021/05/17 11:52:17;;;;;;;2.77;0.50;;;;;;;14.15;63.82;94765.34;5021921;28;20515;-66
2021/05/17 11:54:49;;;;;;;2.37;0.10;;;;;;;14.27;64.46;94786.63;5010529;28;20234;-64
2021/05/17 11:57:18;;;;;;;1.83;0.10;;;;;;;14.61;64.52;94777.91;5018486;28;20285;-67
2021/05/17 11:59:49;;;;;;;2.07;0.20;;;;;;;14.69;64.56;94774.09;5022255;28;20438;-66
2021/05/17 12:02:17;;;;;;;0.40;0.20;;;;;;;14.99;64.49;94769.47;5020649;28;20263;-66
2021/05/17 12:04:45;;;;;;;0.23;0.00;;;;;;;14.93;61.93;94777.56;5020891;28;20224;-66
2021/05/17 12:07:15;;;;;;;0.50;0.27;;;;;;;14.89;62.66;94779.06;5017556;28;20244;-66
2021/05/17 12:09:44;;;;;;;1.67;0.10;;;;;;;14.74;63.54;94783.00;5020823;28;20223;-67
2021/05/17 12:12:13;;;;;;;0.67;0.50;;;;;;;14.41;63.93;94777.41;5017431;28;20228;-66